createdAt,value
2022-11-25T00:01:23.932Z,9.90
2022-11-25T00:08:14.539Z,9.90
2022-11-25T00:10:42.014Z,9.90
2022-11-25T00:13:09.504Z,9.90
2022-11-25T00:15:36.925Z,9.90
2022-11-25T00:18:04.418Z,9.80
2022-11-25T00:20:31.879Z,9.80
2022-11-25T00:22:59.263Z,9.80
2022-11-25T00:25:26.680Z,9.80
2022-11-25T00:27:54.055Z,9.80
2022-11-25T00:30:21.444Z,9.80
2022-11-25T00:32:48.820Z,9.80
2022-11-25T00:35:16.216Z,9.80
2022-11-25T00:37:43.633Z,9.80
2022-11-25T00:40:11.654Z,9.80
2022-11-25T00:42:57.552Z,9.80
2022-11-25T00:45:25.034Z,9.80
2022-11-25T00:47:54.310Z,9.80
2022-11-25T00:50:21.755Z,9.80
2022-11-25T00:52:49.202Z,9.90
2022-11-25T00:55:16.720Z,9.90
2022-11-25T00:57:44.131Z,9.80
2022-11-25T01:00:12.909Z,9.80
2022-11-25T01:02:40.500Z,9.80
2022-11-25T01:05:08.199Z,9.80
2022-11-25T01:12:09.295Z,9.80
2022-11-25T01:14:37.305Z,9.80
2022-11-25T01:17:05.248Z,9.80
2022-11-25T01:19:32.965Z,9.80
2022-11-25T01:22:00.426Z,9.70
2022-11-25T01:24:27.833Z,9.80
2022-11-25T01:26:56.083Z,9.80
2022-11-25T01:29:23.503Z,9.70
2022-11-25T01:31:51.248Z,9.70
2022-11-25T01:34:21.368Z,9.70
2022-11-25T01:36:48.959Z,9.70
2022-11-25T01:39:19.321Z,9.70
2022-11-25T01:41:47.445Z,9.70
2022-11-25T01:44:19.317Z,9.70
2022-11-25T01:46:59.183Z,9.70
2022-11-25T01:49:32.169Z,9.70
2022-11-25T01:52:20.509Z,9.70
2022-11-25T01:54:59.802Z,9.60
2022-11-25T01:57:39.335Z,9.60
2022-11-25T02:00:07.903Z,9.60
2022-11-25T02:02:36.002Z,9.60
2022-11-25T02:05:08.845Z,9.60
2022-11-25T02:07:39.556Z,9.70
2022-11-25T02:10:18.105Z,9.70
2022-11-25T02:12:46.597Z,9.70
2022-11-25T02:15:15.430Z,9.60
2022-11-25T02:17:44.123Z,9.60
2022-11-25T02:20:13.279Z,9.60
2022-11-25T02:22:52.539Z,9.60
2022-11-25T02:25:31.235Z,9.60
2022-11-25T02:28:12.678Z,9.60
2022-11-25T02:30:40.374Z,9.60
2022-11-25T02:33:08.423Z,9.50
2022-11-25T02:35:38.186Z,9.50
2022-11-25T02:38:16.617Z,9.50
2022-11-25T02:40:59.945Z,9.60
2022-11-25T02:43:28.036Z,9.60
2022-11-25T02:46:07.747Z,9.60
2022-11-25T02:49:07.531Z,9.50
2022-11-25T02:51:28.634Z,9.50
2022-11-25T02:53:56.881Z,9.50
2022-11-25T02:56:27.002Z,9.60
2022-11-25T02:58:54.457Z,9.60
2022-11-25T03:01:22.230Z,9.60
2022-11-25T03:03:49.706Z,9.50
2022-11-25T03:06:17.173Z,9.50
2022-11-25T03:08:44.621Z,9.60
2022-11-25T03:11:12.157Z,9.60
2022-11-25T03:13:39.629Z,9.60
2022-11-25T03:16:07.594Z,9.60
2022-11-25T03:18:35.037Z,9.60
2022-11-25T03:21:02.886Z,9.60
2022-11-25T03:23:30.366Z,9.60
2022-11-25T03:25:57.895Z,9.60
2022-11-25T03:28:25.418Z,9.60
2022-11-25T03:30:52.848Z,9.60
2022-11-25T03:33:20.304Z,9.60
2022-11-25T03:35:49.169Z,9.60
2022-11-25T03:38:16.547Z,9.50
2022-11-25T03:40:43.979Z,9.50
2022-11-25T03:43:11.374Z,9.50
2022-11-25T03:45:38.935Z,9.50
2022-11-25T03:48:06.425Z,9.50
2022-11-25T03:50:33.830Z,9.50
2022-11-25T03:53:01.218Z,9.50
2022-11-25T03:55:28.787Z,9.50
2022-11-25T03:57:56.162Z,9.50
2022-11-25T04:00:23.684Z,9.50
2022-11-25T04:02:51.116Z,9.50
2022-11-25T04:05:18.541Z,9.50
2022-11-25T04:07:46.193Z,9.50
2022-11-25T04:10:13.678Z,9.50
2022-11-25T04:12:47.057Z,9.50
2022-11-25T04:15:16.180Z,9.50
2022-11-25T04:17:43.996Z,9.40
2022-11-25T04:20:14.186Z,9.40
2022-11-25T04:22:42.085Z,9.40
2022-11-25T04:25:10.118Z,9.40
2022-11-25T04:27:37.564Z,9.40
2022-11-25T04:30:06.156Z,9.40
2022-11-25T04:32:33.589Z,9.40
2022-11-25T04:35:00.955Z,9.50
2022-11-25T04:37:28.343Z,9.40
2022-11-25T04:39:55.788Z,9.40
2022-11-25T04:42:32.025Z,9.50
2022-11-25T04:45:21.893Z,9.40
2022-11-25T04:47:48.188Z,9.40
2022-11-25T04:50:18.743Z,9.40
2022-11-25T04:52:46.154Z,9.40
2022-11-25T04:55:13.576Z,9.40
2022-11-25T04:57:41.149Z,9.30
2022-11-25T05:00:09.625Z,9.30
2022-11-25T05:02:37.257Z,9.30
2022-11-25T05:05:05.453Z,9.30
2022-11-25T05:07:33.005Z,9.30
2022-11-25T05:10:00.503Z,9.30
2022-11-25T05:12:29.570Z,9.30
2022-11-25T05:14:57.682Z,9.30
2022-11-25T05:17:30.586Z,9.20
2022-11-25T05:19:58.666Z,9.20
2022-11-25T05:22:29.086Z,9.30
2022-11-25T05:24:58.055Z,9.30
2022-11-25T05:27:26.828Z,9.30
2022-11-25T05:29:56.180Z,9.30
2022-11-25T05:32:23.977Z,9.30
2022-11-25T05:34:51.369Z,9.30
2022-11-25T05:37:23.930Z,9.30
2022-11-25T05:39:51.890Z,9.30
2022-11-25T05:42:19.357Z,9.30
2022-11-25T05:44:46.815Z,9.20
2022-11-25T05:47:14.180Z,9.20
2022-11-25T05:49:41.629Z,9.20
2022-11-25T05:52:09.006Z,9.20
2022-11-25T05:54:36.755Z,9.10
2022-11-25T05:57:04.289Z,9.10
2022-11-25T05:59:31.703Z,9.10
2022-11-25T06:01:59.143Z,9.10
2022-11-25T06:04:26.628Z,9.10
2022-11-25T06:06:54.040Z,9.00
2022-11-25T06:09:21.831Z,9.00
2022-11-25T06:11:49.726Z,9.00
2022-11-25T06:14:20.444Z,9.00
2022-11-25T06:16:47.835Z,9.10
2022-11-25T06:19:15.210Z,9.00
2022-11-25T06:21:42.618Z,9.00
2022-11-25T06:24:10.075Z,9.00
2022-11-25T06:26:37.482Z,8.90
2022-11-25T06:29:04.965Z,8.90
2022-11-25T06:31:32.459Z,9.00
2022-11-25T06:33:59.932Z,9.00
2022-11-25T06:36:27.427Z,8.90
2022-11-25T06:38:54.965Z,8.90
2022-11-25T06:41:23.167Z,8.80
2022-11-25T06:43:51.226Z,8.80
2022-11-25T06:46:24.425Z,8.80
2022-11-25T06:48:55.513Z,8.90
2022-11-25T06:51:24.557Z,8.90
2022-11-25T06:53:53.039Z,8.80
2022-11-25T06:56:22.309Z,8.80
2022-11-25T06:58:51.270Z,8.80
2022-11-25T07:01:28.067Z,8.80
2022-11-25T07:04:01.198Z,8.70
2022-11-25T07:06:29.061Z,8.70
2022-11-25T07:08:56.707Z,8.80
2022-11-25T07:11:32.849Z,8.70
2022-11-25T07:14:04.239Z,8.70
2022-11-25T07:16:32.255Z,8.70
2022-11-25T07:19:03.706Z,8.60
2022-11-25T07:21:32.535Z,8.70
2022-11-25T07:24:02.038Z,8.60
2022-11-25T07:26:32.299Z,8.60
2022-11-25T07:29:03.874Z,8.60
2022-11-25T07:31:34.703Z,8.60
2022-11-25T07:34:12.339Z,8.60
2022-11-25T07:36:40.201Z,8.60
2022-11-25T07:39:11.540Z,8.60
2022-11-25T07:41:39.389Z,8.60
2022-11-25T07:44:08.888Z,8.70
2022-11-25T07:46:39.583Z,8.70
2022-11-25T07:49:11.770Z,8.70
2022-11-25T07:51:42.381Z,8.60
2022-11-25T07:54:12.442Z,8.60
2022-11-25T07:56:41.695Z,8.60
2022-11-25T07:59:15.751Z,8.60
2022-11-25T08:01:43.514Z,8.60
2022-11-25T08:04:16.598Z,8.50
2022-11-25T08:06:50.024Z,8.60
2022-11-25T08:09:20.426Z,8.60
2022-11-25T08:11:48.562Z,8.70
2022-11-25T08:14:17.069Z,8.60
2022-11-25T08:16:45.018Z,8.60
2022-11-25T08:19:15.097Z,8.60
2022-11-25T08:21:42.588Z,8.60
2022-11-25T08:24:19.423Z,8.60
2022-11-25T08:26:47.807Z,8.60
2022-11-25T08:29:17.403Z,8.60
2022-11-25T08:31:44.884Z,8.60
2022-11-25T08:34:21.459Z,8.60
2022-11-25T08:36:49.217Z,8.60
2022-11-25T08:39:44.183Z,8.70
2022-11-25T08:42:07.043Z,8.60
2022-11-25T08:44:35.098Z,8.70
2022-11-25T08:47:02.670Z,8.70
2022-11-25T08:49:32.746Z,8.70
2022-11-25T08:52:03.732Z,8.70
2022-11-25T08:54:31.259Z,8.70
2022-11-25T08:57:00.750Z,8.70
2022-11-25T08:59:28.207Z,8.70
2022-11-25T09:01:55.873Z,8.80
2022-11-25T09:04:23.302Z,8.80
2022-11-25T09:06:50.804Z,8.80
2022-11-25T09:09:18.271Z,8.90
2022-11-25T09:11:45.761Z,8.80
2022-11-25T09:14:14.297Z,8.80
2022-11-25T09:16:41.861Z,8.90
2022-11-25T09:19:09.294Z,9.00
2022-11-25T09:21:36.719Z,8.90
2022-11-25T09:24:04.219Z,9.00
2022-11-25T09:26:35.767Z,9.00
2022-11-25T09:29:03.545Z,9.10
2022-11-25T09:31:31.179Z,9.10
2022-11-25T09:33:58.772Z,9.10
2022-11-25T09:36:26.539Z,9.10
2022-11-25T09:38:53.917Z,9.10
2022-11-25T09:41:56.878Z,9.10
2022-11-25T09:45:07.374Z,9.20
2022-11-25T09:47:49.723Z,9.20
2022-11-25T09:50:55.963Z,9.30
2022-11-25T09:53:52.151Z,9.40
2022-11-25T09:56:35.826Z,9.40
2022-11-25T09:59:12.859Z,9.40
2022-11-25T10:01:50.881Z,9.50
2022-11-25T10:04:28.922Z,9.60
2022-11-25T10:07:01.624Z,9.60
2022-11-25T10:09:32.305Z,9.60
2022-11-25T10:12:15.124Z,9.70
2022-11-25T10:14:49.896Z,9.80
2022-11-25T10:17:44.391Z,9.90
2022-11-25T10:20:12.431Z,9.90
2022-11-25T10:22:44.360Z,9.90
2022-11-25T10:25:18.298Z,10.00
2022-11-25T10:28:02.030Z,10.10
2022-11-25T10:30:45.905Z,10.10
2022-11-25T10:33:31.019Z,10.10
2022-11-25T10:36:06.130Z,10.20
2022-11-25T10:38:45.486Z,10.20
2022-11-25T10:41:23.484Z,10.30
2022-11-25T10:43:50.947Z,10.30
2022-11-25T10:46:43.363Z,10.40
2022-11-25T10:49:14.308Z,10.40
2022-11-25T10:51:50.248Z,10.50
2022-11-25T10:54:27.719Z,10.50
2022-11-25T10:56:56.949Z,10.50
2022-11-25T10:59:34.512Z,10.50
2022-11-25T11:02:23.746Z,10.60
2022-11-25T11:05:09.072Z,10.70
2022-11-25T11:07:44.099Z,10.70
2022-11-25T11:10:14.378Z,10.80
2022-11-25T11:12:59.206Z,10.80
2022-11-25T11:15:29.577Z,10.80
2022-11-25T11:17:59.413Z,10.80
2022-11-25T11:20:31.816Z,10.90
2022-11-25T11:23:11.779Z,10.90
2022-11-25T11:25:41.732Z,11.00
2022-11-25T11:28:27.609Z,11.00
2022-11-25T11:31:03.173Z,11.10
2022-11-25T11:33:30.634Z,11.10
2022-11-25T11:36:11.859Z,11.20
2022-11-25T11:38:49.470Z,11.20
2022-11-25T11:41:44.124Z,11.40
2022-11-25T11:44:26.365Z,11.40
2022-11-25T11:47:17.869Z,11.40
2022-11-25T11:50:08.473Z,11.50
2022-11-25T11:52:59.092Z,11.50
2022-11-25T11:56:27.039Z,11.60
2022-11-25T11:58:55.198Z,11.70
2022-11-25T12:01:35.200Z,11.70
2022-11-25T12:04:26.318Z,11.80
2022-11-25T12:07:17.667Z,12.00
2022-11-25T12:09:53.774Z,12.40
2022-11-25T12:12:25.015Z,12.90
2022-11-25T12:15:02.650Z,13.30
2022-11-25T12:17:38.006Z,13.60
2022-11-25T12:20:15.986Z,13.70
2022-11-25T12:23:01.963Z,14.00
2022-11-25T12:25:41.308Z,13.90
2022-11-25T12:28:33.470Z,14.40
2022-11-25T12:31:18.622Z,14.40
2022-11-25T12:34:05.777Z,14.30
2022-11-25T12:36:39.205Z,14.60
2022-11-25T12:39:36.660Z,14.60
2022-11-25T12:42:13.629Z,14.50
2022-11-25T12:45:00.642Z,14.50
2022-11-25T12:47:28.133Z,14.30
2022-11-25T12:49:56.763Z,14.30
2022-11-25T12:52:44.247Z,14.10
2022-11-25T12:55:19.828Z,14.40
2022-11-25T12:58:05.305Z,14.30
2022-11-25T13:01:01.892Z,14.40
2022-11-25T13:04:06.721Z,14.40
2022-11-25T13:07:09.147Z,14.40
2022-11-25T13:09:42.569Z,14.30
2022-11-25T13:12:33.469Z,14.00
2022-11-25T13:15:23.679Z,14.10
2022-11-25T13:17:57.927Z,13.90
2022-11-25T13:20:28.448Z,14.00
2022-11-25T13:23:11.435Z,14.20
2022-11-25T13:25:43.832Z,14.10
2022-11-25T13:28:29.230Z,13.80
2022-11-25T13:31:17.797Z,13.30
2022-11-25T13:33:45.228Z,13.00
2022-11-25T13:36:21.706Z,12.70
2022-11-25T13:38:49.082Z,12.50
2022-11-25T13:41:16.497Z,12.50
2022-11-25T13:44:14.432Z,12.40
2022-11-25T13:46:51.695Z,12.40
2022-11-25T13:49:33.859Z,12.30
2022-11-25T13:52:23.550Z,12.40
2022-11-25T13:54:54.029Z,12.30
2022-11-25T13:57:34.840Z,12.30
2022-11-25T14:00:07.261Z,12.30
2022-11-25T14:02:36.925Z,12.30
2022-11-25T14:05:28.297Z,12.30
2022-11-25T14:08:17.152Z,12.30
2022-11-25T14:11:21.795Z,12.30
2022-11-25T14:14:24.422Z,12.30
2022-11-25T14:17:27.286Z,12.20
2022-11-25T14:20:14.709Z,12.30
2022-11-25T14:22:53.743Z,12.30
2022-11-25T14:25:22.704Z,12.20
2022-11-25T14:28:00.982Z,12.20
2022-11-25T14:30:32.313Z,12.10
2022-11-25T14:33:05.104Z,12.10
2022-11-25T14:35:48.240Z,12.10
2022-11-25T14:38:45.314Z,12.10
2022-11-25T14:42:05.379Z,12.10
2022-11-25T14:44:45.207Z,12.20
2022-11-25T14:47:12.554Z,12.20
2022-11-25T14:49:51.611Z,12.20
2022-11-25T14:52:28.455Z,12.20
2022-11-25T14:54:57.562Z,12.10
2022-11-25T14:57:28.252Z,12.10
2022-11-25T15:00:02.015Z,12.10
2022-11-25T15:02:35.341Z,12.00
2022-11-25T15:05:26.288Z,12.00
2022-11-25T15:07:59.653Z,11.90
2022-11-25T15:10:57.279Z,12.00
2022-11-25T15:13:35.770Z,11.90
2022-11-25T15:16:21.792Z,11.90
2022-11-25T15:18:58.500Z,11.80
2022-11-25T15:21:33.922Z,11.80
2022-11-25T15:24:02.826Z,11.70
2022-11-25T15:26:34.072Z,11.70
2022-11-25T15:29:12.985Z,11.70
2022-11-25T15:31:42.041Z,11.70
2022-11-25T15:34:13.222Z,11.60
2022-11-25T15:36:41.399Z,11.60
2022-11-25T15:39:20.556Z,11.60
2022-11-25T15:41:50.084Z,11.50
2022-11-25T15:44:32.091Z,11.50
2022-11-25T15:47:05.114Z,11.40
2022-11-25T15:49:35.862Z,11.40
2022-11-25T15:52:05.172Z,11.40
2022-11-25T15:54:45.713Z,11.40
2022-11-25T15:57:24.097Z,11.40
2022-11-25T16:00:04.977Z,11.30
2022-11-25T16:02:34.171Z,11.30
2022-11-25T16:05:16.193Z,11.30
2022-11-25T16:07:52.681Z,11.20
2022-11-25T16:10:25.879Z,11.10
2022-11-25T16:13:21.844Z,11.10
2022-11-25T16:16:13.363Z,11.20
2022-11-25T16:18:52.731Z,11.10
2022-11-25T16:21:26.607Z,11.10
2022-11-25T16:24:11.442Z,11.10
2022-11-25T16:27:08.903Z,11.00
2022-11-25T16:29:48.266Z,11.00
2022-11-25T16:32:18.382Z,10.90
2022-11-25T16:34:46.124Z,10.90
2022-11-25T16:37:13.711Z,11.00
2022-11-25T16:39:41.324Z,11.00
2022-11-25T16:42:17.411Z,10.90
2022-11-25T16:44:50.924Z,10.90
2022-11-25T16:47:20.018Z,10.90
2022-11-25T16:49:47.607Z,10.90
2022-11-25T16:52:16.571Z,10.80
2022-11-25T16:54:44.653Z,10.80
2022-11-25T16:57:18.310Z,10.70
2022-11-25T16:59:50.268Z,10.70
2022-11-25T17:02:21.862Z,10.70
2022-11-25T17:04:49.543Z,10.70
2022-11-25T17:07:34.694Z,10.70
2022-11-25T17:10:02.997Z,10.60
2022-11-25T17:12:33.582Z,10.60
2022-11-25T17:15:02.813Z,10.60
2022-11-25T17:17:30.533Z,10.60
2022-11-25T17:19:57.971Z,10.60
2022-11-25T17:22:27.638Z,10.60
2022-11-25T17:24:55.002Z,10.60
2022-11-25T17:27:27.177Z,10.60
2022-11-25T17:29:55.888Z,10.60
2022-11-25T17:32:23.912Z,10.60
2022-11-25T17:34:51.518Z,10.50
2022-11-25T17:37:24.171Z,10.50
2022-11-25T17:39:54.778Z,10.50
2022-11-25T17:42:27.695Z,10.60
2022-11-25T17:44:55.244Z,10.60
2022-11-25T17:47:23.017Z,10.60
2022-11-25T17:49:50.475Z,10.50
2022-11-25T17:52:17.917Z,10.50
2022-11-25T17:54:45.403Z,10.50
2022-11-25T17:57:19.157Z,10.50
2022-11-25T17:59:46.644Z,10.40
2022-11-25T18:02:22.286Z,10.40
2022-11-25T18:04:49.966Z,10.40
2022-11-25T18:07:18.478Z,10.40
2022-11-25T18:09:46.067Z,10.40
2022-11-25T18:12:30.057Z,10.40
2022-11-25T18:14:57.701Z,10.30
2022-11-25T18:17:25.176Z,10.40
2022-11-25T18:19:55.293Z,10.40
2022-11-25T18:22:24.195Z,10.40
2022-11-25T18:24:52.601Z,10.40
2022-11-25T18:27:27.766Z,10.40
2022-11-25T18:29:56.512Z,10.40
2022-11-25T18:32:24.987Z,10.40
2022-11-25T18:34:52.423Z,10.40
2022-11-25T18:37:19.957Z,10.30
2022-11-25T18:39:47.374Z,10.40
2022-11-25T18:42:27.822Z,10.30
2022-11-25T18:44:56.131Z,10.30
2022-11-25T18:47:23.818Z,10.30
2022-11-25T18:49:55.980Z,10.30
2022-11-25T18:52:25.073Z,10.30
2022-11-25T18:54:52.683Z,10.30
2022-11-25T18:57:20.256Z,10.30
2022-11-25T19:00:04.875Z,10.30
2022-11-25T19:02:35.664Z,10.30
2022-11-25T19:05:17.950Z,10.30
2022-11-25T19:07:47.085Z,10.30
2022-11-25T19:10:16.443Z,10.30
2022-11-25T19:12:48.754Z,10.30
2022-11-25T19:15:19.300Z,10.30
2022-11-25T19:17:49.949Z,10.30
2022-11-25T19:20:20.360Z,10.30
2022-11-25T19:22:48.000Z,10.30
2022-11-25T19:25:15.791Z,10.20
2022-11-25T19:27:48.851Z,10.30
2022-11-25T19:30:22.477Z,10.30
2022-11-25T19:32:53.851Z,10.30
2022-11-25T19:35:31.360Z,10.30
2022-11-25T19:37:58.774Z,10.30
2022-11-25T19:40:26.408Z,10.20
2022-11-25T19:42:53.794Z,10.20
2022-11-25T19:45:22.049Z,10.10
2022-11-25T19:47:52.008Z,10.10
2022-11-25T19:50:25.661Z,10.10
2022-11-25T19:52:53.628Z,10.10
2022-11-25T19:55:23.506Z,10.10
2022-11-25T19:57:52.914Z,10.20
2022-11-25T20:00:22.404Z,10.20
2022-11-25T20:02:52.655Z,10.10
2022-11-25T20:05:31.502Z,10.10
2022-11-25T20:07:59.148Z,10.10
2022-11-25T20:10:30.243Z,10.10
2022-11-25T20:13:00.061Z,10.10
2022-11-25T20:15:27.801Z,10.10
2022-11-25T20:18:01.255Z,10.10
2022-11-25T20:20:33.220Z,10.10
2022-11-25T20:23:20.624Z,10.10
2022-11-25T20:25:49.352Z,10.10
2022-11-25T20:28:22.908Z,10.10
2022-11-25T20:30:51.304Z,10.10
2022-11-25T20:33:24.061Z,10.10
2022-11-25T20:35:56.990Z,10.00
2022-11-25T20:38:27.973Z,10.00
2022-11-25T20:40:57.999Z,9.90
2022-11-25T20:43:31.449Z,9.90
2022-11-25T20:46:02.629Z,10.00
2022-11-25T20:48:30.279Z,10.00
2022-11-25T20:51:02.834Z,9.90
2022-11-25T20:53:32.357Z,9.90
2022-11-25T20:56:00.288Z,9.80
2022-11-25T20:58:32.492Z,9.80
2022-11-25T21:01:00.077Z,9.70
2022-11-25T21:03:27.630Z,9.70
2022-11-25T21:05:56.991Z,9.70
2022-11-25T21:08:28.670Z,9.70
2022-11-25T21:10:58.123Z,9.70
2022-11-25T21:13:28.316Z,9.70
2022-11-25T21:15:59.517Z,9.70
2022-11-25T21:18:26.960Z,9.70
2022-11-25T21:20:56.557Z,9.70
2022-11-25T21:23:32.050Z,9.60
2022-11-25T21:26:11.770Z,9.60
2022-11-25T21:28:42.838Z,9.60
2022-11-25T21:31:13.371Z,9.60
2022-11-25T21:33:40.843Z,9.60
2022-11-25T21:36:32.114Z,9.60
2022-11-25T21:39:05.035Z,9.60
2022-11-25T21:41:33.114Z,9.60
2022-11-25T21:44:01.140Z,9.60
2022-11-25T21:46:28.974Z,9.60
2022-11-25T21:48:56.502Z,9.60
2022-11-25T21:51:26.558Z,9.70
2022-11-25T21:53:54.592Z,9.70
2022-11-25T21:56:28.797Z,9.70
2022-11-25T21:58:57.629Z,9.80
2022-11-25T22:01:25.046Z,9.70
2022-11-25T22:03:52.528Z,9.70
2022-11-25T22:10:48.072Z,9.70
2022-11-25T22:13:18.142Z,9.70
2022-11-25T22:15:46.076Z,9.70
2022-11-25T22:18:21.937Z,9.70
2022-11-25T22:20:53.234Z,9.70
2022-11-25T22:23:21.516Z,9.60
2022-11-25T22:25:50.219Z,9.60
2022-11-25T22:28:24.485Z,9.50
2022-11-25T22:30:54.629Z,9.50
2022-11-25T22:33:29.783Z,9.40
2022-11-25T22:35:57.362Z,9.40
2022-11-25T22:38:24.946Z,9.30
2022-11-25T22:40:56.480Z,9.40
2022-11-25T22:43:28.043Z,9.40
2022-11-25T22:45:56.318Z,9.50
2022-11-25T22:48:36.062Z,9.40
2022-11-25T22:51:04.334Z,9.40
2022-11-25T22:53:32.195Z,9.40
2022-11-25T22:56:00.072Z,9.40
2022-11-25T22:58:28.266Z,9.40
2022-11-25T23:00:56.992Z,9.30
2022-11-25T23:03:29.421Z,9.40
2022-11-25T23:05:57.223Z,9.30
2022-11-25T23:08:27.284Z,9.30
2022-11-25T23:10:56.221Z,9.20
2022-11-25T23:13:24.078Z,9.20
2022-11-25T23:15:56.754Z,9.20
2022-11-25T23:18:45.122Z,9.20
2022-11-25T23:21:29.109Z,9.30
2022-11-25T23:23:57.007Z,9.30
2022-11-25T23:29:11.227Z,9.20
2022-11-25T23:31:40.397Z,9.20
2022-11-25T23:34:08.087Z,9.30
2022-11-25T23:36:46.810Z,9.20
2022-11-25T23:39:20.401Z,9.20
2022-11-25T23:41:48.919Z,9.20
2022-11-25T23:44:26.762Z,9.20
2022-11-25T23:47:00.886Z,9.20
2022-11-25T23:49:33.258Z,9.20
2022-11-25T23:52:07.510Z,9.20
2022-11-25T23:54:41.215Z,9.30
2022-11-25T23:57:27.752Z,9.30
2022-11-25T23:59:55.125Z,9.30
